Time;durP1;ratioP1;P1;durP2;ratioP2;P2;SDS_P1;SDS_P2;PMS_P1;PMS_P2;Temp;Humidity;BMP_temperature;BMP_pressure;BME280_temperature;BME280_humidity;BME280_pressure;Samples;Min_cycle;Max_cycle;Signal;HPM_P1;HPM_P2
2021/03/26 00:00:46;;;;;;;23.10;15.70;;;8.00;1.00;;;;;;5004041;28;20585;-73
2021/03/26 00:03:16;;;;;;;28.10;16.37;;;7.80;1.00;;;;;;5000325;28;20913;-73
2021/03/26 00:05:43;;;;;;;26.30;17.53;;;7.80;1.00;;;;;;5001856;28;20516;-73
2021/03/26 00:08:11;;;;;;;27.43;17.20;;;7.80;1.00;;;;;;4990108;28;20453;-73
2021/03/26 00:10:37;;;;;;;28.40;18.03;;;7.70;1.00;;;;;;4999514;28;20450;-72
2021/03/26 00:13:03;;;;;;;22.30;15.83;;;7.70;1.00;;;;;;4996668;28;20442;-74
2021/03/26 00:15:28;;;;;;;26.53;16.23;;;7.70;1.00;;;;;;5000368;28;20368;-74
2021/03/26 00:17:54;;;;;;;27.77;17.97;;;7.70;1.00;;;;;;4995559;28;20458;-72
2021/03/26 00:20:20;;;;;;;29.17;17.67;;;7.70;1.00;;;;;;4997478;28;20215;-72
2021/03/26 00:22:46;;;;;;;27.37;18.30;;;7.60;1.00;;;;;;5003144;28;20200;-72
2021/03/26 00:25:12;;;;;;;25.70;16.37;;;7.60;1.00;;;;;;5000483;28;20211;-72
2021/03/26 00:27:37;;;;;;;28.10;16.60;;;7.50;1.00;;;;;;5004452;28;20207;-72
2021/03/26 00:30:09;;;;;;;30.17;18.87;;;7.60;1.00;;;;;;4998751;28;20483;-72
2021/03/26 00:32:35;;;;;;;26.20;17.57;;;7.60;1.00;;;;;;5001260;28;20188;-72
2021/03/26 00:35:02;;;;;;;25.40;16.27;;;7.50;1.00;;;;;;5001188;28;20477;-72
2021/03/26 00:37:28;;;;;;;26.87;17.03;;;7.50;1.00;;;;;;5010678;28;20444;-72
2021/03/26 00:39:53;;;;;;;30.40;18.40;;;7.50;1.00;;;;;;5001573;28;20443;-72
2021/03/26 00:42:19;;;;;;;26.73;17.27;;;7.50;1.00;;;;;;5000347;28;20672;-73
2021/03/26 00:44:45;;;;;;;26.50;17.70;;;7.50;1.00;;;;;;5003630;28;20214;-72
2021/03/26 00:47:11;;;;;;;28.33;18.20;;;7.50;1.00;;;;;;5002534;28;20187;-72
2021/03/26 00:49:37;;;;;;;31.27;18.00;;;7.50;1.00;;;;;;4999356;28;20408;-72
2021/03/26 00:52:04;;;;;;;27.77;18.07;;;7.60;1.00;;;;;;5001715;28;20488;-74
2021/03/26 00:54:30;;;;;;;28.53;17.73;;;7.50;1.00;;;;;;5004949;28;20483;-73
2021/03/26 00:56:56;;;;;;;25.57;18.33;;;7.50;1.00;;;;;;5002053;28;20452;-73
2021/03/26 00:59:22;;;;;;;29.90;19.23;;;7.40;1.00;;;;;;4998335;28;20515;-73
2021/03/26 01:01:48;;;;;;;39.20;18.87;;;7.40;1.00;;;;;;5008371;28;20296;-73
2021/03/26 01:04:20;;;;;;;28.07;18.30;;;7.40;1.00;;;;;;4996370;28;20475;-73
2021/03/26 01:06:46;;;;;;;33.37;19.97;;;7.40;1.00;;;;;;5005881;28;20769;-73
2021/03/26 01:09:12;;;;;;;33.50;19.10;;;7.50;1.00;;;;;;5009362;28;20443;-73
2021/03/26 01:11:40;;;;;;;33.73;20.20;;;7.50;1.00;;;;;;5004412;28;20480;-73
2021/03/26 01:14:12;;;;;;;35.63;20.20;;;7.60;1.00;;;;;;5000449;28;20463;-73
2021/03/26 01:16:38;;;;;;;28.67;19.20;;;7.50;1.00;;;;;;5003237;28;20458;-73
2021/03/26 01:19:05;;;;;;;30.20;19.80;;;7.60;1.00;;;;;;5006868;28;21059;-73
2021/03/26 01:21:34;;;;;;;30.60;18.70;;;7.60;1.00;;;;;;5006005;28;20184;-73
2021/03/26 01:24:00;;;;;;;27.93;19.67;;;7.60;1.00;;;;;;4997810;28;20440;-73
2021/03/26 01:26:28;;;;;;;31.50;18.60;;;7.50;1.00;;;;;;5009959;28;20442;-73
2021/03/26 01:29:01;;;;;;;28.20;17.83;;;7.40;1.00;;;;;;5004919;28;20476;-73
2021/03/26 01:31:29;;;;;;;30.27;19.47;;;7.50;1.00;;;;;;5016363;28;20439;-73
2021/03/26 01:33:55;;;;;;;31.67;19.43;;;7.50;1.00;;;;;;5001725;28;20746;-73
2021/03/26 01:36:24;;;;;;;31.47;19.27;;;7.50;1.00;;;;;;5002267;28;20836;-73
2021/03/26 01:38:50;;;;;;;35.20;20.50;;;7.40;1.00;;;;;;4999344;28;21755;-73
2021/03/26 01:41:40;;;;;;;32.33;19.23;;;7.40;1.00;;;;;;4996391;28;20565;-72
2021/03/26 01:44:16;;;;;;;33.63;21.40;;;7.50;1.00;;;;;;4998590;28;21110;-73
2021/03/26 01:46:43;;;;;;;32.77;19.17;;;7.50;1.00;;;;;;4998879;28;20975;-73
2021/03/26 01:49:09;;;;;;;36.50;21.27;;;7.60;1.00;;;;;;5016431;28;20466;-73
2021/03/26 01:51:40;;;;;;;31.53;21.10;;;7.60;1.00;;;;;;4990417;28;20461;-73
2021/03/26 01:54:10;;;;;;;34.43;22.30;;;7.60;1.00;;;;;;5020903;28;20521;-73
2021/03/26 01:56:36;;;;;;;35.70;22.50;;;7.60;1.00;;;;;;5001441;28;20733;-73
2021/03/26 01:59:17;;;;;;;31.93;21.50;;;7.50;1.00;;;;;;5002863;28;20455;-74
2021/03/26 02:01:47;;;;;;;37.47;22.40;;;7.50;1.00;;;;;;5005781;28;20528;-74
2021/03/26 02:04:25;;;;;;;35.40;19.97;;;7.50;1.00;;;;;;4998859;28;20433;-74
2021/03/26 02:06:55;;;;;;;30.70;21.40;;;7.50;1.00;;;;;;5009661;28;20514;-74
2021/03/26 02:09:27;;;;;;;34.43;21.70;;;7.50;1.00;;;;;;5001719;28;20541;-74
2021/03/26 02:12:35;;;;;;;35.53;21.37;;;7.40;1.00;;;;;;5014016;28;21061;-73
2021/03/26 02:15:18;;;;;;;38.53;21.70;;;7.50;1.00;;;;;;5004575;28;20473;-74
2021/03/26 02:17:45;;;;;;;39.33;23.43;;;7.50;1.00;;;;;;4999435;28;20653;-74
2021/03/26 02:20:17;;;;;;;31.77;20.93;;;7.40;1.00;;;;;;4996174;28;20446;-74
2021/03/26 02:22:44;;;;;;;33.13;21.17;;;7.40;1.00;;;;;;4995096;28;25169;-74
2021/03/26 02:25:14;;;;;;;34.97;22.00;;;7.40;1.00;;;;;;5011613;28;20498;-74
2021/03/26 02:27:41;;;;;;;41.83;24.10;;;7.40;1.00;;;;;;5006891;28;20882;-74
2021/03/26 02:30:18;;;;;;;35.30;22.00;;;7.30;1.00;;;;;;4995977;28;20465;-74
2021/03/26 02:32:47;;;;;;;36.67;22.37;;;7.40;1.00;;;;;;4996346;28;20442;-74
2021/03/26 02:35:30;;;;;;;33.80;22.03;;;7.40;1.00;;;;;;4997439;28;21080;-74
2021/03/26 02:38:22;;;;;;;32.30;21.67;;;7.50;1.00;;;;;;4997541;28;20452;-74
2021/03/26 02:41:10;;;;;;;36.90;23.77;;;7.50;1.00;;;;;;4998819;28;20538;-74
2021/03/26 02:44:16;;;;;;;34.20;21.63;;;7.40;1.00;;;;;;4996145;28;20918;-74
2021/03/26 02:46:54;;;;;;;33.90;20.63;;;7.50;1.00;;;;;;4997752;28;20470;-74
2021/03/26 02:49:36;;;;;;;34.43;22.37;;;7.30;1.00;;;;;;4998305;28;21226;-74
2021/03/26 02:52:30;;;;;;;30.90;20.50;;;7.30;1.00;;;;;;4997000;28;20446;-74
2021/03/26 02:55:06;;;;;;;34.00;20.90;;;7.20;1.00;;;;;;4992745;28;21771;-74
2021/03/26 02:57:47;;;;;;;34.70;22.10;;;7.10;1.00;;;;;;4999450;28;20457;-74
2021/03/26 03:00:31;;;;;;;35.60;22.30;;;7.10;1.00;;;;;;5001035;28;20518;-75
2021/03/26 03:03:00;;;;;;;36.30;19.57;;;7.10;1.00;;;;;;4993032;28;20930;-74
2021/03/26 03:05:34;;;;;;;30.10;20.43;;;7.10;1.00;;;;;;4993044;28;20686;-74
2021/03/26 03:08:24;;;;;;;31.60;21.13;;;7.00;1.00;;;;;;4998267;28;20851;-74
2021/03/26 03:11:15;;;;;;;34.00;20.40;;;7.00;1.00;;;;;;4997773;28;20452;-74
2021/03/26 03:14:01;;;;;;;33.47;21.03;;;6.90;1.00;;;;;;5004348;28;20521;-74
2021/03/26 03:16:44;;;;;;;36.30;22.13;;;6.90;1.00;;;;;;4998859;28;20472;-74
2021/03/26 03:19:13;;;;;;;46.00;22.70;;;7.00;1.00;;;;;;4993419;28;20547;-74
2021/03/26 03:21:49;;;;;;;36.67;21.47;;;7.10;1.00;;;;;;4997608;28;20449;-74
2021/03/26 03:24:21;;;;;;;34.80;21.90;;;7.10;1.00;;;;;;4993762;28;20449;-74
2021/03/26 03:27:05;;;;;;;33.53;20.73;;;7.10;1.00;;;;;;4997935;28;20837;-74
2021/03/26 03:29:34;;;;;;;34.03;21.57;;;7.10;1.00;;;;;;5001606;28;24931;-74
2021/03/26 03:32:41;;;;;;;37.67;24.20;;;7.10;1.00;;;;;;4999361;28;22990;-74
2021/03/26 03:35:25;;;;;;;33.47;21.13;;;7.00;1.00;;;;;;5002840;28;20479;-74
2021/03/26 03:38:22;;;;;;;36.67;21.77;;;7.10;1.00;;;;;;4996760;28;20446;-74
2021/03/26 03:41:30;;;;;;;30.97;21.97;;;7.00;1.00;;;;;;4998486;28;20544;-75
2021/03/26 03:44:22;;;;;;;39.27;21.80;;;7.00;1.00;;;;;;5008569;28;20442;-74
2021/03/26 03:46:57;;;;;;;37.43;20.03;;;6.90;1.00;;;;;;4997764;28;20811;-74
2021/03/26 03:49:40;;;;;;;33.70;21.30;;;6.80;1.00;;;;;;4998439;28;20463;-74
2021/03/26 03:52:35;;;;;;;31.93;20.10;;;6.80;1.00;;;;;;4999429;28;20453;-74
2021/03/26 03:55:09;;;;;;;33.00;20.93;;;6.80;1.00;;;;;;4997490;28;20467;-73
2021/03/26 03:58:03;;;;;;;33.63;21.77;;;6.70;1.00;;;;;;4999419;28;21151;-74
2021/03/26 04:00:41;;;;;;;31.70;21.53;;;6.70;1.00;;;;;;4998920;28;20931;-74
2021/03/26 04:03:19;;;;;;;36.30;22.40;;;6.60;1.00;;;;;;5002609;28;21224;-74
2021/03/26 04:05:49;;;;;;;40.23;23.07;;;6.50;1.00;;;;;;5001657;28;20441;-74
2021/03/26 04:08:29;;;;;;;37.53;22.33;;;6.50;1.00;;;;;;5014592;28;20556;-74
2021/03/26 04:11:21;;;;;;;31.30;21.60;;;6.50;1.00;;;;;;5000967;28;20441;-74
2021/03/26 04:13:56;;;;;;;30.90;21.50;;;6.50;1.00;;;;;;5000321;28;20446;-74
2021/03/26 04:16:25;;;;;;;33.27;22.97;;;6.40;1.00;;;;;;4999225;28;21123;-74
2021/03/26 04:19:07;;;;;;;39.37;23.60;;;6.30;1.00;;;;;;5001367;28;20521;-74
2021/03/26 04:22:03;;;;;;;38.10;22.20;;;6.40;1.00;;;;;;5000773;28;20767;-74
2021/03/26 04:25:00;;;;;;;44.90;24.27;;;6.40;1.00;;;;;;5005693;28;20455;-74
2021/03/26 04:27:39;;;;;;;46.67;25.50;;;6.30;1.00;;;;;;5005629;28;20500;-73
2021/03/26 04:30:23;;;;;;;36.87;24.00;;;6.30;9.20;;;;;;5000444;28;20538;-73
2021/03/26 04:32:56;;;;;;;38.13;23.07;;;6.30;20.60;;;;;;5001546;28;20576;-75
2021/03/26 04:35:25;;;;;;;37.67;22.40;;;6.30;20.80;;;;;;5000590;28;20471;-73
2021/03/26 04:38:10;;;;;;;38.57;23.30;;;6.30;32.30;;;;;;5003145;28;20574;-75
2021/03/26 04:40:46;;;;;;;38.60;24.10;;;6.30;25.10;;;;;;5003444;28;20469;-72
2021/03/26 04:43:41;;;;;;;35.60;23.53;;;6.20;33.60;;;;;;4998968;28;20485;-75
2021/03/26 04:46:47;;;;;;;40.87;24.60;;;6.30;72.90;;;;;;5007458;28;20975;-74
2021/03/26 04:49:51;;;;;;;42.00;26.13;;;6.40;98.50;;;;;;4999928;28;20462;-74
2021/03/26 04:52:44;;;;;;;38.37;24.23;;;6.50;67.40;;;;;;4998110;28;20443;-72
2021/03/26 04:55:28;;;;;;;40.53;23.73;;;6.50;43.60;;;;;;4998892;28;20477;-74
2021/03/26 04:58:06;;;;;;;47.80;28.60;;;6.60;31.10;;;;;;4999813;28;20923;-75
2021/03/26 05:01:05;;;;;;;39.87;25.07;;;6.70;49.50;;;;;;5024098;28;20582;-75
2021/03/26 05:03:36;;;;;;;44.13;26.83;;;6.70;20.90;;;;;;4996121;28;21180;-75
2021/03/26 05:06:22;;;;;;;39.17;25.33;;;6.70;25.60;;;;;;5002774;28;20448;-74
2021/03/26 05:09:00;;;;;;;43.00;25.20;;;6.60;17.00;;;;;;4997621;28;20448;-74
2021/03/26 05:11:34;;;;;;;40.53;26.17;;;6.50;15.40;;;;;;5002666;28;20465;-74
2021/03/26 05:14:06;;;;;;;37.50;25.10;;;6.50;28.70;;;;;;4999944;28;21482;-75
2021/03/26 05:16:48;;;;;;;44.77;27.10;;;6.40;22.10;;;;;;5014943;28;21085;-75
2021/03/26 05:19:45;;;;;;;38.73;24.20;;;6.40;15.00;;;;;;5003021;28;20501;-74
2021/03/26 05:22:41;;;;;;;40.40;26.70;;;6.40;15.00;;;;;;5000880;28;20454;-75
2021/03/26 05:25:35;;;;;;;40.60;27.03;;;6.30;18.10;;;;;;5015791;28;20473;-74
2021/03/26 05:28:23;;;;;;;39.17;24.20;;;6.30;9.80;;;;;;5011737;28;25112;-74
2021/03/26 05:31:30;;;;;;;42.37;24.67;;;6.20;30.20;;;;;;5013078;28;20591;-73
2021/03/26 05:34:02;;;;;;;49.13;28.10;;;6.30;58.90;;;;;;5012620;28;20584;-74
2021/03/26 05:36:45;;;;;;;39.47;28.10;;;6.30;96.20;;;;;;5007612;28;21074;-74
2021/03/26 05:39:33;;;;;;;43.07;25.77;;;6.30;99.90;;;;;;5011664;28;20434;-74
2021/03/26 05:42:49;;;;;;;46.10;26.67;;;6.40;99.90;;;;;;5004910;28;20428;-74
2021/03/26 05:45:44;;;;;;;45.03;26.17;;;6.50;99.90;;;;;;5015349;28;20992;-74
2021/03/26 05:48:54;;;;;;;41.23;25.27;;;6.60;99.90;;;;;;5002739;28;20482;-73
2021/03/26 05:51:37;;;;;;;40.93;25.60;;;6.70;99.90;;;;;;5015856;28;20451;-73
2021/03/26 05:54:31;;;;;;;52.33;27.57;;;6.70;79.40;;;;;;5014340;28;20440;-74
2021/03/26 05:57:15;;;;;;;44.53;25.87;;;6.70;87.10;;;;;;5014615;28;20489;-74
2021/03/26 05:59:53;;;;;;;44.50;26.03;;;6.70;90.70;;;;;;5006248;28;20473;-74
2021/03/26 06:02:38;;;;;;;40.67;25.70;;;6.70;57.10;;;;;;5011847;28;20457;-73
2021/03/26 06:05:41;;;;;;;42.50;25.13;;;6.70;59.50;;;;;;5020532;28;20532;-73
2021/03/26 06:08:48;;;;;;;38.60;25.57;;;6.80;64.60;;;;;;5013804;28;21019;-72
2021/03/26 06:11:54;;;;;;;41.47;25.83;;;6.80;44.80;;;;;;5011032;28;20877;-73
2021/03/26 06:15:26;;;;;;;37.07;24.20;;;6.80;35.50;;;;;;5006415;28;20566;-73
2021/03/26 06:18:22;;;;;;;41.67;25.13;;;6.90;29.00;;;;;;5012281;28;20469;-73
2021/03/26 06:21:20;;;;;;;49.53;25.27;;;6.90;31.80;;;;;;5022836;28;20434;-72
2021/03/26 06:24:25;;;;;;;42.33;26.70;;;6.90;30.00;;;;;;5012813;28;20612;-72
2021/03/26 06:27:06;;;;;;;45.60;24.77;;;7.00;28.50;;;;;;5018224;28;20443;-74
2021/03/26 06:29:38;;;;;;;43.83;26.07;;;7.10;18.80;;;;;;5013841;28;20957;-72
2021/03/26 06:32:23;;;;;;;46.83;27.00;;;7.10;15.00;;;;;;5026250;28;20493;-73
2021/03/26 06:35:08;;;;;;;45.07;27.40;;;7.10;11.50;;;;;;5010891;28;20469;-73
2021/03/26 06:38:04;;;;;;;52.70;27.23;;;7.30;3.90;;;;;;5012230;28;20452;-73
2021/03/26 06:41:11;;;;;;;42.60;27.10;;;7.30;1.00;;;;;;5013832;28;20463;-73
2021/03/26 06:44:04;;;;;;;41.70;25.27;;;7.40;1.00;;;;;;5012805;28;20811;-73
2021/03/26 06:46:53;;;;;;;42.27;27.63;;;7.50;1.00;;;;;;5007995;28;20582;-73
2021/03/26 06:49:31;;;;;;;47.30;27.30;;;7.60;1.00;;;;;;5014959;28;20542;-73
2021/03/26 06:52:16;;;;;;;47.27;25.60;;;7.60;1.00;;;;;;5020545;28;20441;-73
2021/03/26 06:55:23;;;;;;;45.53;26.87;;;7.70;1.00;;;;;;5011234;28;20842;-73
2021/03/26 06:58:00;;;;;;;42.87;26.80;;;7.80;1.00;;;;;;5005639;28;20542;-72
2021/03/26 07:00:26;;;;;;;43.00;26.50;;;7.90;1.00;;;;;;5007523;28;20454;-73
2021/03/26 07:03:15;;;;;;;39.30;25.00;;;7.90;1.00;;;;;;5006572;28;20553;-73
2021/03/26 07:05:44;;;;;;;40.97;25.50;;;8.00;1.00;;;;;;5015469;28;20231;-72
2021/03/26 07:08:22;;;;;;;40.70;25.37;;;8.10;1.00;;;;;;5010948;28;20845;-73
2021/03/26 07:10:57;;;;;;;49.77;29.13;;;8.20;1.00;;;;;;5011687;28;20466;-74
2021/03/26 07:13:38;;;;;;;44.40;26.40;;;8.30;1.00;;;;;;5001592;28;20468;-72
2021/03/26 07:16:25;;;;;;;46.63;27.83;;;8.30;1.00;;;;;;5018542;28;20568;-73
2021/03/26 07:19:16;;;;;;;45.00;26.73;;;8.40;1.00;;;;;;5008872;28;20444;-73
2021/03/26 07:22:01;;;;;;;43.87;26.53;;;8.60;1.00;;;;;;5004351;28;20963;-73
2021/03/26 07:24:46;;;;;;;39.67;24.37;;;8.70;1.00;;;;;;5008404;28;21010;-73
2021/03/26 07:27:14;;;;;;;42.20;26.40;;;8.70;1.00;;;;;;5008964;28;20454;-73
2021/03/26 07:29:52;;;;;;;36.03;25.50;;;8.80;1.00;;;;;;5007175;28;21234;-74
2021/03/26 07:32:18;;;;;;;40.37;25.50;;;9.00;1.00;;;;;;5011242;28;20454;-74
2021/03/26 07:35:17;;;;;;;40.40;26.47;;;9.10;1.00;;;;;;5014459;28;20452;-75
2021/03/26 07:38:28;;;;;;;46.07;27.80;;;9.20;1.00;;;;;;5002637;28;20203;-74
2021/03/26 07:41:35;;;;;;;40.60;23.73;;;9.30;1.00;;;;;;5015785;28;20544;-75
2021/03/26 07:44:22;;;;;;;42.33;25.63;;;9.50;1.00;;;;;;5003532;28;21191;-74
2021/03/26 07:47:27;;;;;;;40.53;24.77;;;9.50;1.00;;;;;;5005578;28;20786;-75
2021/03/26 07:50:22;;;;;;;40.70;24.87;;;9.60;1.00;;;;;;4998354;28;24689;-75
2021/03/26 07:53:13;;;;;;;37.47;22.10;;;9.80;1.00;;;;;;5026644;28;20454;-75
2021/03/26 07:55:57;;;;;;;33.03;22.70;;;9.90;1.00;;;;;;5005369;28;20481;-73
2021/03/26 07:58:59;;;;;;;36.90;23.80;;;10.00;1.00;;;;;;4982083;28;22231;-73
2021/03/26 08:02:05;;;;;;;36.23;22.63;;;10.10;1.00;;;;;;5001848;28;20483;-72
2021/03/26 08:04:59;;;;;;;31.80;21.57;;;10.20;1.00;;;;;;5001165;28;21241;-73
2021/03/26 08:07:44;;;;;;;36.60;21.93;;;10.30;1.00;;;;;;5006645;28;20453;-73
2021/03/26 08:10:39;;;;;;;30.30;21.20;;;10.30;1.00;;;;;;5005154;28;20469;-73
2021/03/26 08:13:11;;;;;;;31.03;22.33;;;10.40;1.00;;;;;;5003596;28;20495;-73
2021/03/26 08:16:07;;;;;;;37.07;21.37;;;10.50;1.00;;;;;;5004842;28;20559;-73
2021/03/26 08:19:18;;;;;;;33.90;21.67;;;10.60;1.00;;;;;;5002292;28;20460;-73
2021/03/26 08:22:19;;;;;;;29.77;21.70;;;10.60;1.00;;;;;;5004092;28;20452;-73
2021/03/26 08:25:13;;;;;;;32.53;21.10;;;10.70;1.00;;;;;;5004219;28;20878;-73
2021/03/26 08:27:54;;;;;;;31.23;21.17;;;10.70;1.00;;;;;;5002162;28;20457;-72
2021/03/26 08:30:30;;;;;;;30.17;22.20;;;10.80;1.00;;;;;;5003872;28;21151;-73
2021/03/26 08:33:23;;;;;;;31.50;19.23;;;11.00;1.00;;;;;;5004511;28;20967;-73
2021/03/26 08:36:22;;;;;;;36.00;21.07;;;11.10;1.00;;;;;;5003827;28;20476;-73
2021/03/26 08:39:25;;;;;;;34.27;20.90;;;11.10;1.00;;;;;;5003937;28;20971;-73
2021/03/26 08:41:58;;;;;;;29.73;20.90;;;11.20;1.00;;;;;;5002912;28;20441;-73
2021/03/26 08:44:26;;;;;;;28.40;19.43;;;11.30;1.00;;;;;;4995227;28;20448;-74
2021/03/26 08:46:55;;;;;;;33.07;20.50;;;11.30;1.00;;;;;;5004773;28;20470;-72
2021/03/26 08:49:33;;;;;;;28.80;19.97;;;11.40;1.00;;;;;;5004790;28;20777;-72
2021/03/26 08:52:55;;;;;;;27.10;18.57;;;11.40;1.00;;;;;;5000623;28;20440;-73
2021/03/26 08:55:59;;;;;;;32.53;20.83;;;11.50;1.00;;;;;;5006486;28;21002;-74
2021/03/26 08:58:48;;;;;;;30.40;20.40;;;11.50;1.00;;;;;;4991847;28;20948;-74
2021/03/26 09:01:45;;;;;;;29.93;19.93;;;11.70;1.00;;;;;;4996134;28;20912;-74
2021/03/26 09:04:23;;;;;;;28.50;17.77;;;11.70;1.00;;;;;;5000987;28;20446;-74
2021/03/26 09:06:55;;;;;;;21.70;17.17;;;12.00;1.00;;;;;;5001251;28;20967;-74
2021/03/26 09:09:52;;;;;;;23.13;17.43;;;11.90;1.00;;;;;;5003310;28;20865;-74
2021/03/26 09:12:26;;;;;;;26.60;16.80;;;12.00;1.00;;;;;;5007204;28;20851;-73
2021/03/26 09:15:29;;;;;;;24.60;15.50;;;12.20;1.00;;;;;;4997040;28;20727;-72
2021/03/26 09:18:12;;;;;;;21.97;14.47;;;12.10;1.00;;;;;;5001406;28;20517;-72
2021/03/26 09:20:43;;;;;;;20.70;15.37;;;12.20;1.00;;;;;;5000859;28;20448;-72
2021/03/26 09:23:34;;;;;;;21.20;15.90;;;12.30;1.00;;;;;;5003834;28;20450;-72
2021/03/26 09:26:26;;;;;;;20.87;14.43;;;12.20;1.00;;;;;;4983127;28;593408;-72
2021/03/26 09:28:56;;;;;;;25.87;15.77;;;12.30;1.00;;;;;;5000257;28;20448;-73
2021/03/26 09:31:33;;;;;;;22.50;15.13;;;12.50;1.00;;;;;;5004251;28;20548;-72
2021/03/26 09:34:16;;;;;;;23.50;14.80;;;12.50;1.00;;;;;;4996556;28;21009;-73
2021/03/26 09:36:44;;;;;;;21.30;14.37;;;12.70;1.00;;;;;;5000255;28;20520;-72
2021/03/26 09:39:14;;;;;;;19.20;13.07;;;12.70;1.00;;;;;;5001973;28;20446;-72
2021/03/26 09:41:50;;;;;;;25.30;13.77;;;12.80;1.00;;;;;;5003417;28;20537;-72
2021/03/26 09:44:40;;;;;;;21.33;16.40;;;12.70;1.00;;;;;;5003232;28;20450;-73
2021/03/26 09:47:18;;;;;;;25.50;14.70;;;12.70;1.00;;;;;;5005599;28;20824;-72
2021/03/26 09:49:51;;;;;;;20.80;13.70;;;12.60;1.00;;;;;;5002409;28;20543;-73
2021/03/26 09:52:44;;;;;;;27.20;16.33;;;12.90;1.00;;;;;;5004335;28;20543;-73
2021/03/26 09:55:20;;;;;;;18.53;14.00;;;12.70;1.00;;;;;;5001391;28;21243;-72
2021/03/26 09:57:55;;;;;;;23.27;14.50;;;12.70;1.00;;;;;;5000102;28;20491;-73
2021/03/26 10:00:44;;;;;;;21.77;15.20;;;12.80;1.00;;;;;;5001638;28;20521;-72
2021/03/26 10:03:31;;;;;;;24.17;16.20;;;12.80;1.00;;;;;;5003167;28;20643;-73
2021/03/26 10:06:29;;;;;;;21.00;15.70;;;13.00;1.00;;;;;;5004556;28;20467;-72
2021/03/26 10:09:23;;;;;;;23.80;14.37;;;12.60;1.00;;;;;;4999983;28;20990;-73
2021/03/26 10:12:15;;;;;;;22.00;14.03;;;12.70;1.00;;;;;;5000603;28;20642;-72
2021/03/26 10:14:49;;;;;;;20.93;13.80;;;12.70;1.00;;;;;;4999795;28;20485;-73
2021/03/26 10:17:43;;;;;;;21.17;14.77;;;12.90;1.00;;;;;;5003974;28;20474;-73
2021/03/26 10:20:12;;;;;;;18.77;12.17;;;12.70;1.00;;;;;;5000771;28;20443;-73
2021/03/26 10:22:49;;;;;;;20.53;12.20;;;12.80;1.00;;;;;;5005244;28;20446;-73
2021/03/26 10:25:33;;;;;;;19.63;11.37;;;13.30;1.00;;;;;;4987543;28;20563;-73
2021/03/26 10:28:33;;;;;;;14.20;10.13;;;13.40;1.00;;;;;;5016031;28;20435;-73
2021/03/26 10:31:18;;;;;;;13.93;10.00;;;13.30;1.00;;;;;;5004641;28;20469;-73
2021/03/26 10:34:09;;;;;;;16.37;9.83;;;13.50;1.00;;;;;;5004217;28;20482;-74
2021/03/26 10:37:12;;;;;;;14.20;9.70;;;13.70;1.00;;;;;;5008096;28;20548;-73
2021/03/26 10:39:41;;;;;;;13.63;10.23;;;13.60;1.00;;;;;;5008432;28;20451;-73
2021/03/26 10:42:19;;;;;;;19.50;10.80;;;13.30;1.00;;;;;;5005053;28;21250;-73
2021/03/26 10:45:08;;;;;;;17.20;10.40;;;13.40;1.00;;;;;;5003802;28;20485;-73
2021/03/26 10:47:50;;;;;;;16.27;9.43;;;13.30;1.00;;;;;;5004048;28;20454;-75
2021/03/26 10:50:39;;;;;;;16.77;10.60;;;13.20;1.00;;;;;;5001229;28;20572;-73
2021/03/26 10:53:21;;;;;;;15.50;10.60;;;13.50;1.00;;;;;;5004742;28;20443;-72
2021/03/26 10:56:11;;;;;;;22.13;12.73;;;13.70;1.00;;;;;;5002784;28;20675;-73
2021/03/26 10:58:49;;;;;;;17.80;10.57;;;13.90;1.00;;;;;;5004957;28;20448;-73
2021/03/26 11:01:23;;;;;;;18.63;12.10;;;13.90;1.00;;;;;;5005610;28;20470;-73
2021/03/26 11:04:27;;;;;;;19.30;11.70;;;14.20;1.00;;;;;;5002557;28;20442;-74
2021/03/26 11:07:06;;;;;;;18.20;12.97;;;14.20;1.00;;;;;;5003020;28;20580;-73
2021/03/26 11:09:50;;;;;;;18.37;11.70;;;14.20;1.00;;;;;;4999417;28;20444;-74
2021/03/26 11:12:35;;;;;;;18.53;12.03;;;14.30;1.00;;;;;;5004931;28;20436;-74
2021/03/26 11:15:16;;;;;;;16.47;11.30;;;14.20;1.00;;;;;;4998806;28;20470;-73
2021/03/26 11:17:57;;;;;;;16.57;11.23;;;14.10;1.00;;;;;;4998093;28;20434;-73
2021/03/26 11:20:36;;;;;;;16.20;12.83;;;14.20;1.00;;;;;;5000558;28;20471;-73
2021/03/26 11:23:29;;;;;;;17.13;11.67;;;14.50;1.00;;;;;;4997368;28;20963;-73
2021/03/26 11:26:19;;;;;;;19.10;12.23;;;14.00;1.00;;;;;;5000703;28;20907;-74
2021/03/26 11:29:00;;;;;;;16.90;11.90;;;13.80;1.00;;;;;;5002509;28;20733;-73
2021/03/26 11:31:43;;;;;;;16.30;12.53;;;13.60;1.00;;;;;;4998555;28;20471;-73
2021/03/26 11:34:56;;;;;;;16.60;11.90;;;13.90;1.00;;;;;;5008193;28;21033;-74
2021/03/26 11:38:08;;;;;;;19.93;12.17;;;14.20;1.00;;;;;;5001453;28;20877;-74
2021/03/26 11:40:53;;;;;;;17.93;10.17;;;14.60;1.00;;;;;;5000412;28;20452;-73
2021/03/26 11:43:24;;;;;;;11.33;8.77;;;14.60;1.00;;;;;;5003044;28;20447;-74
2021/03/26 11:46:06;;;;;;;12.70;9.17;;;14.40;1.00;;;;;;5019755;28;20487;-73
2021/03/26 11:49:02;;;;;;;12.57;9.23;;;14.70;1.00;;;;;;4999407;28;20547;-74
2021/03/26 11:51:40;;;;;;;15.40;9.17;;;14.90;1.00;;;;;;4999642;28;20494;-73
2021/03/26 11:54:18;;;;;;;13.33;8.83;;;14.80;1.00;;;;;;5000268;28;20451;-74
2021/03/26 11:57:16;;;;;;;13.20;8.63;;;14.80;1.00;;;;;;4998443;28;20508;-74
2021/03/26 12:00:07;;;;;;;16.17;9.43;;;15.00;1.00;;;;;;4991056;28;20457;-73
2021/03/26 12:02:41;;;;;;;12.33;9.27;;;15.10;1.00;;;;;;5000729;28;20458;-73
2021/03/26 12:05:34;;;;;;;13.80;8.80;;;15.50;1.00;;;;;;4994995;28;20629;-73
2021/03/26 12:08:19;;;;;;;11.30;8.57;;;15.20;1.00;;;;;;5004912;28;20451;-73
2021/03/26 12:11:02;;;;;;;10.63;7.67;;;14.90;1.00;;;;;;5003104;28;20450;-73
2021/03/26 12:13:35;;;;;;;17.40;9.57;;;14.80;1.00;;;;;;5003781;28;20485;-73
2021/03/26 12:16:18;;;;;;;12.57;7.70;;;15.10;1.00;;;;;;5000082;28;20982;-73
2021/03/26 12:19:22;;;;;;;11.60;8.57;;;15.00;1.00;;;;;;5016479;28;20775;-72
2021/03/26 12:22:14;;;;;;;10.43;7.00;;;14.90;1.00;;;;;;5003644;28;20506;-74
2021/03/26 12:25:02;;;;;;;10.50;7.10;;;14.70;1.00;;;;;;5000710;28;20478;-73
2021/03/26 12:27:47;;;;;;;12.53;7.57;;;14.80;1.00;;;;;;5002763;28;20588;-73
2021/03/26 12:30:29;;;;;;;12.30;7.63;;;14.70;1.00;;;;;;5002217;28;20903;-73
2021/03/26 12:33:15;;;;;;;10.33;6.90;;;14.60;1.00;;;;;;5003000;28;20989;-73
2021/03/26 12:35:50;;;;;;;10.47;6.80;;;14.60;1.00;;;;;;5007908;28;20510;-73
2021/03/26 12:38:26;;;;;;;9.53;7.03;;;14.50;1.00;;;;;;5005364;28;20870;-73
2021/03/26 12:40:55;;;;;;;13.50;7.57;;;14.50;1.00;;;;;;5007342;28;20527;-72
2021/03/26 12:43:41;;;;;;;11.07;6.70;;;15.00;1.00;;;;;;5000218;28;20451;-73
2021/03/26 12:46:12;;;;;;;9.50;7.27;;;15.20;1.00;;;;;;5005203;28;20464;-73
2021/03/26 12:48:41;;;;;;;8.70;6.30;;;15.40;1.00;;;;;;5001589;28;20459;-74
2021/03/26 12:51:28;;;;;;;7.20;5.57;;;15.60;1.00;;;;;;5002067;28;20526;-74
2021/03/26 12:54:08;;;;;;;12.00;7.47;;;15.30;1.00;;;;;;5004815;28;20439;-72
2021/03/26 12:56:58;;;;;;;9.30;6.10;;;15.40;1.00;;;;;;5000205;28;20926;-74
2021/03/26 12:59:32;;;;;;;9.20;6.00;;;15.20;1.00;;;;;;5000797;28;20451;-74
2021/03/26 13:02:16;;;;;;;8.60;6.43;;;14.90;1.00;;;;;;5004673;28;20449;-74
2021/03/26 13:04:54;;;;;;;9.00;5.40;;;15.10;1.00;;;;;;5001787;28;20443;-73
2021/03/26 13:07:42;;;;;;;8.17;5.20;;;15.10;1.00;;;;;;5008805;28;20972;-73
2021/03/26 13:10:40;;;;;;;8.23;5.73;;;15.00;1.00;;;;;;4999498;28;20459;-73
2021/03/26 13:13:34;;;;;;;8.73;6.63;;;15.00;1.00;;;;;;4999394;28;20456;-74
2021/03/26 13:16:24;;;;;;;16.57;4.53;;;15.50;1.00;;;;;;4988895;28;20489;-73
2021/03/26 13:18:57;;;;;;;9.83;6.30;;;15.90;1.00;;;;;;5000993;28;20446;-74
2021/03/26 13:21:39;;;;;;;7.50;5.43;;;16.00;1.00;;;;;;5002136;28;20446;-73
2021/03/26 13:24:47;;;;;;;7.10;5.70;;;16.10;1.00;;;;;;4998011;28;20553;-74
2021/03/26 13:27:22;;;;;;;6.43;5.50;;;16.10;1.00;;;;;;4993584;28;21435;-73
2021/03/26 13:30:10;;;;;;;7.70;5.90;;;16.00;1.00;;;;;;5002657;28;20441;-74
2021/03/26 13:32:58;;;;;;;7.57;5.13;;;16.00;1.00;;;;;;5003499;28;20731;-74
2021/03/26 13:35:47;;;;;;;7.43;5.30;;;15.90;1.00;;;;;;5000305;28;20854;-74
2021/03/26 13:38:31;;;;;;;8.90;5.83;;;15.90;1.00;;;;;;5007053;28;20848;-73
2021/03/26 13:41:23;;;;;;;7.23;5.20;;;16.10;1.00;;;;;;5002748;28;20879;-74
2021/03/26 13:44:18;;;;;;;9.70;5.00;;;16.10;1.00;;;;;;5000340;28;21173;-74
2021/03/26 13:46:46;;;;;;;6.67;4.93;;;16.30;1.00;;;;;;5004532;28;20719;-74
2021/03/26 13:49:17;;;;;;;7.60;5.30;;;16.60;1.00;;;;;;4993810;28;20821;-74
2021/03/26 13:51:46;;;;;;;6.10;4.90;;;16.50;1.00;;;;;;4998954;28;20499;-74
2021/03/26 13:54:20;;;;;;;11.63;5.53;;;16.60;1.00;;;;;;4995025;28;20453;-74
2021/03/26 13:56:52;;;;;;;5.87;5.13;;;16.70;1.00;;;;;;4994443;28;20861;-73
2021/03/26 13:59:40;;;;;;;8.63;6.17;;;16.60;1.00;;;;;;4999981;28;20525;-74
2021/03/26 14:02:35;;;;;;;8.03;5.13;;;16.40;1.00;;;;;;4998924;28;20593;-74